Latest Coastal Weather Observations for Norah Head

IDN60701

Issued at 1:11 am EDT Wednesday 22 February 2017 (issued every 10 minutes, with the page automatically refreshed every 10 minutes)

About coastal observations | Map of coastal stations | Coastal observations for NSW | Marine services | Other Formats
Station Details ID: 061366 Name: NORAH HEAD AWS Lat: -33.28 Lon: 151.58 Height: 18.8 m
Data from the previous 72 hours. | See also: Recent months at Norah Head
Date/Time
EDT
Temp
°C
Wind Pressure Rain since
9am
mm
Weather Cloud Vis
km
Sea
Height
m
Swell
Dir  Spd
kts
Gust
kts
hPa Trend Height
m
Period
s
Dir
22/01:00am 21.3 NE 10 11 1020.2 - 0.0 - - - - - - -
22/12:30am 21.3 NE 10 11 1020.5 - 0.0 - - - - - - -
22/12:00am 21.2 NE 10 11 1020.6 - 0.0 - - - - - - -
 
Date/Time
EDT
Temp
°C
Wind Pressure Rain since
9am
mm
Weather Cloud Vis
km
Sea
Height
m
Swell
Dir  Spd
kts
Gust
kts
hPa Trend Height
m
Period
s
Dir
21/11:30pm 21.6 NE 11 12 1020.5 - 0.0 - - - - - - -
21/11:00pm 21.7 NE 12 13 1020.6 - 0.0 - - - - - - -
21/10:30pm 21.8 NE 13 16 1020.7 - 0.0 - - - - - - -
21/10:00pm 21.8 NE 13 15 1021.0 - 0.0 - - - - - - -
21/09:30pm 22.1 NE 14 17 1020.6 - 0.0 - - - - - - -
21/09:00pm 22.1 NE 14 16 1020.4 - 0.0 - - - - - - -
21/08:30pm 22.2 NE 14 16 1020.2 - 0.0 - - - - - - -
21/08:00pm 22.0 NE 14 17 1020.0 - 0.0 - - - - - - -
21/07:30pm 22.3 NE 14 17 1019.8 - 0.0 - - - - - - -
21/07:00pm 23.0 NE 14 17 1019.2 - 0.0 - - - - - - -
21/06:30pm 24.3 NE 10 13 1018.8 - 0.0 - - - - - - -
21/06:00pm 25.0 NE 10 12 1018.6 - 0.0 - - - - - - -
21/05:30pm 25.5 NE 10 12 1018.4 - 0.0 - - - - - - -
21/05:00pm 26.4 ENE 9 10 1018.3 - 0.0 - - - - - - -
21/04:30pm 27.1 ENE 9 11 1018.1 - 0.0 - - - - - - -
21/04:00pm 26.9 ENE 8 10 1018.1 - 0.0 - - - - - - -
21/03:30pm 25.4 E 5 6 1018.1 - 0.0 - - - - - - -
21/03:00pm 25.6 ESE 5 6 1018.2 - 0.0 - - - - - - -
21/02:30pm 26.1 SE 5 6 1018.6 - 0.0 - - - - - - -
21/02:00pm 26.2 S 6 7 1018.9 - 0.0 - - - - - - -
21/01:30pm 25.0 SSW 6 8 1019.2 - 0.0 - - - - - - -
21/01:00pm 24.5 SSW 8 11 1019.5 - 0.0 - - - - - - -
21/12:30pm 23.4 SSW 8 10 1019.6 - 0.0 - - - - - - -
21/12:00pm 23.4 SSW 9 11 1019.9 - 0.0 - - - - - - -
21/11:30am 22.9 SSW 9 12 1020.0 - 0.0 - - - - - - -
21/11:00am 23.1 SSW 7 9 1020.1 - 0.0 - - - - - - -
21/10:30am 21.9 SSW 6 8 1020.1 - 0.0 - - - - - - -
21/10:00am 21.8 SSW 7 9 1019.8 - 0.0 - - - - - - -
21/09:30am 21.7 SSW 7 9 1019.4 - 0.0 - - - - - - -
21/09:00am 20.4 SSW 6 9 1019.1 - 0.0 - - - - - - -
21/08:30am 19.9 SW 5 8 1018.8 - 0.0 - - - - - - -
21/08:00am 19.2 SW 4 7 1018.3 - 0.0 - - - - - - -
21/07:30am 18.3 SW 6 9 1017.9 - 0.0 - - - - - - -
21/07:00am 18.2 SW 7 10 1017.6 - 0.0 - - - - - - -
21/06:30am 18.4 SW 5 6 1017.1 - 0.0 - - - - - - -
21/06:00am 18.7 SW 6 8 1016.8 - 0.0 - - - - - - -
21/05:30am 19.1 SW 5 7 1016.5 - 0.0 - - - - - - -
21/05:00am 19.2 SW 4 6 1016.2 - 0.0 - - - - - - -
21/04:30am 19.1 SW 4 5 1016.3 - 0.0 - - - - - - -
21/04:00am 19.0 CALM 0 0 1016.2 - 0.0 - - - - - - -
21/03:30am 19.3 CALM 0 0 1016.0 - 0.0 - - - - - - -
21/03:00am 19.1 NW 1 2 1016.1 - 0.0 - - - - - - -
21/02:30am 19.1 NW 3 3 1016.0 - 0.0 - - - - - - -
21/02:00am 19.2 NW 3 5 1016.0 - 0.0 - - - - - - -
21/01:30am 19.3 NW 3 5 1016.3 - 0.0 - - - - - - -
21/01:00am 19.1 NNW 5 6 1016.3 - 0.0 - - - - - - -
21/12:30am 19.4 NNW 5 6 1016.4 - 0.0 - - - - - - -
21/12:00am 20.0 N 6 7 1016.3 - 0.0 - - - - - - -
 
Date/Time
EDT
Temp
°C
Wind Pressure Rain since
9am
mm
Weather Cloud Vis
km
Sea
Height
m
Swell
Dir  Spd
kts
Gust
kts
hPa Trend Height
m
Period
s
Dir
20/11:30pm 20.0 N 6 7 1016.1 - 0.0 - - - - - - -
20/11:00pm 20.1 N 6 7 1015.9 - 0.0 - - - - - - -
20/10:30pm 20.0 N 8 9 1015.7 - 0.0 - - - - - - -
20/10:00pm 20.2 N 9 10 1015.5 - 0.0 - - - - - - -
20/09:30pm 20.5 N 8 10 1015.0 - 0.0 - - - - - - -
20/09:00pm 20.2 NNW 5 6 1014.6 - 0.0 - - - - - - -
20/08:30pm 21.3 NNE 6 7 1014.0 - 0.0 - - - - - - -
20/08:00pm 21.7 E 7 8 1013.2 - 0.0 - - - - - - -
20/07:30pm 22.5 E 9 11 1012.4 - 0.0 - - - - - - -
20/07:00pm 22.8 ESE 10 12 1011.7 - 0.0 - - - - - - -
20/06:30pm 22.9 E 10 13 1011.1 - 0.0 - - - - - - -
20/06:00pm 23.2 ESE 11 13 1010.8 - 0.0 - - - - - - -
20/05:30pm 23.5 ESE 11 13 1010.6 - 0.0 - - - - - - -
20/05:00pm 23.5 E 11 13 1010.2 - 0.0 - - - - - - -
20/04:30pm 23.7 ESE 11 13 1010.1 - 0.0 - - - - - - -
20/04:00pm 23.7 ESE 12 14 1009.9 - 0.0 - - - - - - -
20/03:30pm 24.3 SE 12 14 1009.9 - 0.0 - - - - - - -
20/03:00pm 24.0 ESE 11 13 1010.1 - 0.0 - - - - - - -
20/02:30pm 24.9 SSE 14 17 1009.9 - 0.0 - - - - - - -
20/02:00pm 24.4 S 13 16 1010.1 - 0.0 - - - - - - -
20/01:30pm 25.0 S 8 10 1010.3 - 0.0 - - - - - - -
20/01:00pm 25.3 SW 5 9 1010.6 - 0.0 - - - - - - -
20/12:30pm 24.4 WSW 5 11 1010.9 - 0.0 - - - - - - -
20/12:00pm 24.1 WSW 6 12 1011.2 - 0.0 - - - - - - -
20/11:30am 23.2 W 5 11 1011.5 - 0.0 - - - - - - -
20/11:00am 22.6 W 6 15 1011.6 - 0.0 - - - - - - -
20/10:30am 21.9 W 7 14 1011.5 - 0.0 - - - - - - -
20/10:00am 21.4 WSW 6 11 1011.6 - 0.0 - - - - - - -
20/09:30am 20.6 W 4 9 1011.3 - 0.0 - - - - - - -
20/09:00am 20.3 W 4 11 1011.2 - 0.0 - - - - - - -
20/08:30am 19.5 W 5 9 1011.2 - 0.0 - - - - - - -
20/08:00am 18.9 W 4 9 1011.0 - 0.0 - - - - - - -
20/07:30am 18.0 WNW 3 5 1010.9 - 0.0 - - - - - - -
20/07:00am 17.5 W 4 6 1010.6 - 0.0 - - - - - - -
20/06:30am 17.6 W 5 6 1010.2 - 0.0 - - - - - - -
20/06:00am 17.6 W 5 7 1009.7 - 0.0 - - - - - - -
20/05:30am 17.9 W 5 8 1009.3 - 0.0 - - - - - - -
20/05:00am 18.3 W 5 7 1008.9 - 0.0 - - - - - - -
20/04:30am 18.8 W 5 8 1008.4 - 0.0 - - - - - - -
20/04:00am 19.0 W 6 10 1008.2 - 0.0 - - - - - - -
20/03:30am 19.0 W 5 9 1007.8 - 0.0 - - - - - - -
20/03:00am 19.5 WSW 5 9 1007.2 - 0.0 - - - - - - -
20/02:30am 19.9 WSW 5 9 1006.7 - 0.0 - - - - - - -
20/02:00am 20.4 WSW 6 12 1006.5 - 0.0 - - - - - - -
20/01:30am 20.4 W 6 11 1006.5 - 0.0 - - - - - - -
20/01:00am 20.3 W 7 10 1006.4 - 0.0 - - - - - - -
20/12:30am 20.3 WSW 6 9 1006.6 - 0.0 - - - - - - -
20/12:00am 20.2 WSW 6 9 1006.7 - 0.0 - - - - - - -
 
Date/Time
EDT
Temp
°C
Wind Pressure Rain since
9am
mm
Weather Cloud Vis
km
Sea
Height
m
Swell
Dir  Spd
kts
Gust
kts
hPa Trend Height
m
Period
s
Dir
19/11:30pm 20.1 SW 8 13 1006.3 - 0.0 - - - - - - -
19/11:00pm 21.6 W 5 7 1005.6 - 0.0 - - - - - - -
19/10:30pm 20.7 WNW 3 5 1005.8 - 0.0 - - - - - - -
19/10:00pm 19.9 NW 1 2 1006.1 - 0.0 - - - - - - -
19/09:30pm 19.9 SSW 6 10 1005.8 - 0.0 - - - - - - -
19/09:00pm 20.0 SW 4 13 1005.6 - 0.0 - - - - - - -
19/08:30pm 21.3 N 9 10 1004.9 - 0.0 - - - - - - -
19/08:00pm 21.1 N 7 7 1005.3 - 0.0 - - - - - - -
19/07:30pm 21.1 NNW 5 7 1005.3 - 0.0 - - - - - - -
19/07:00pm 21.9 N 2 3 1005.2 - 0.0 - - - - - - -
19/06:30pm 21.9 NE 2 3 1005.1 - 0.0 - - - - - - -
19/06:00pm 21.5 N 2 4 1005.1 - 0.0 - - - - - - -
19/05:30pm 21.4 N 3 5 1005.3 - 0.0 - - - - - - -
19/05:00pm 22.4 N 2 3 1005.1 - 0.0 - - - - - - -
19/04:30pm 22.3 S 2 3 1005.3 - 0.0 - - - - - - -
19/04:00pm 21.2 SSW 3 5 1005.5 - 0.0 - - - - - - -
19/03:30pm 21.1 SSW 5 6 1006.0 - 0.0 - - - - - - -
19/03:00pm 21.3 S 7 8 1006.5 - 0.0 - - - - - - -
19/02:30pm 20.6 SSW 5 9 1007.1 - 0.0 - - - - - - -
19/02:00pm 21.0 S 7 11 1007.1 - 0.0 - - - - - - -
19/01:30pm 20.7 SSW 8 12 1007.5 - 0.0 - - - - - - -
19/01:00pm 20.7 SSW 10 14 1007.8 - 0.0 - - - - - - -
19/12:30pm 20.4 SSW 11 15 1008.4 - 0.0 - - - - - - -
19/12:00pm 20.3 SSW 10 14 1008.4 - 0.0 - - - - - - -
19/11:30am 20.6 SSW 10 14 1008.6 - 0.0 - - - - - - -
19/11:00am 20.0 SSW 12 17 1008.6 - 0.0 - - - - - - -
19/10:30am 20.0 SSW 11 16 1008.5 - 0.0 - - - - - - -
19/10:00am 19.9 SSW 10 15 1008.5 - 0.0 - - - - - - -
19/09:30am 19.7 SSW 8 12 1008.5 - 0.0 - - - - - - -
19/09:00am 19.5 SSW 12 17 1008.1 - 2.0 - - - - - - -
19/08:30am 19.6 SSW 11 16 1008.0 - 2.0 - - - - - - -
19/08:00am 19.6 SSW 13 19 1007.7 - 2.0 - - - - - - -
19/07:30am 19.6 SW 12 19 1007.7 - 2.0 - - - - - - -
19/07:00am 19.5 SSW 14 18 1007.3 - 2.0 - - - - - - -
19/06:30am 19.6 SSW 15 21 1007.0 - 2.0 - - - - - - -
19/06:00am 19.7 SSW 17 23 1006.7 - 2.0 - - - - - - -
19/05:30am 19.8 SSW 17 23 1006.4 - 2.0 - - - - - - -
19/05:00am 20.0 SSW 16 23 1005.9 - 2.0 - - - - - - -
19/04:30am 20.5 SSW 19 25 1005.8 - 2.0 - - - - - - -
19/04:00am 20.7 SW 13 18 1006.0 - 2.0 - - - - - - -
19/03:30am 20.8 SSW 13 17 1005.5 - 2.0 - - - - - - -
19/03:00am 21.0 SSW 15 20 1005.6 - 2.0 - - - - - - -
19/02:30am 21.5 SW 12 16 1005.4 - 2.0 - - - - - - -
19/02:00am 21.7 SW 6 10 1005.3 - 2.0 - - - - - - -
19/01:30am 21.3 SW 6 9 1005.4 - 2.0 - - - - - - -

Other Formats:

Comma delimited format used in spreadsheet applications
http://www.bom.gov.au/fwo/IDN60701/IDN60701.95770.axf

JavaScript Object Notation format (JSON) in row-major order
http://www.bom.gov.au/fwo/IDN60701/IDN60701.95770.json